Flight Track Log - Related Links

Times and Time Zones

All times are in EDT time to prevent confusion due to time zone crossing. See the PVL5700 flight status page for this flight to view local times or setup timezone preferences in your user account.

Time Position Orientation Groundspeed Altitude Reporting Facility
EDT Latitude Longitude Course Direction KTS km/h feet Rate Location/Type
Sat 17:14:25 48.8500 -54.3667 136° Southeast 160 296 6,200  Level Gander Center
Sat 17:15:25 48.8167 -54.3500 162° South 170 315 8,200 1,900 Climbing Gander Center
Sat 17:16:25 48.7833 -54.3000 135° Southeast 170 315 10,000 1,400 Climbing Gander Center
Sat 17:17:25 48.7500 -54.2333 127° Southeast 190 352 11,000 500 Climbing Gander Center
Sat 17:18:25 48.7000 -54.1833 147° Southeast 240 444 11,000  Level Gander Center
Sat 17:19:00 48.6229 -54.1348 136° Southeast  Level FlightAware Approximate
Sat 17:19:25 48.6333 -54.1167 147° Southeast 260 481 11,000  Level Gander Center
Sat 17:20:25 48.5667 -54.0500 146° Southeast 270 501 11,000  Level Gander Center
Sat 17:21:25 48.5167 -53.9667 132° Southeast 270 501 11,000  Level Gander Center
Sat 17:22:25 48.4500 -53.8833 140° Southeast 280 518 11,000  Level Gander Center
Sat 17:23:25 48.3833 -53.8333 154° Southeast 280 518 11,000  Level Gander Center
Sat 17:24:25 48.3333 -53.7667 138° Southeast 280 518 11,000  Level Gander Center
Sat 17:25:25 48.2667 -53.7000 146° Southeast 280 518 11,000 -50 Level Gander Center
Sat 17:26:25 48.2000 -53.6333 146° Southeast 280 518 10,900 -50 Descending Gander Center
Sat 17:27:25 48.1333 -53.5667 146° Southeast 280 518 10,900 -100 Level Gander Center
Sat 17:28:25 48.0833 -53.5000 138° Southeast 280 518 10,700 -450 Descending Gander Center
Sat 17:29:25 48.0167 -53.4000 135° Southeast 270 501 10,000 -850 Descending Gander Center
Sat 17:30:25 47.9667 -53.3667 156° South 270 501 9,000 -1,000 Descending Gander Center
Sat 17:31:25 47.9000 -53.2667 135° Southeast 260 481 8,000 -1,000 Descending Gander Center
Sat 17:32:25 47.8333 -53.2333 161° South 260 481 7,000 -1,050 Descending Gander Center
Sat 17:33:25 47.7833 -53.1667 138° Southeast 260 481 5,900 -1,200 Descending Gander Center
Sat 17:34:25 47.7333 -53.1000 138° Southeast 260 481 4,600 -1,400 Descending Gander Center
Sat 17:35:25 47.6833 -53.0333 138° Southeast 250 463 3,100 -1,150 Descending Gander Center
Sat 17:36:25 47.6167 -52.9667 146° Southeast 230 426 2,300 -400 Descending Gander Center
Sat 17:37:25 47.6000 -52.9167 116° Southeast 180 333 2,300 -100 Level Gander Center
Sat 17:38:25 47.6000 -52.8500 90° East 190 352 2,100 -450 Descending Gander Center
Sat 17:39:25 47.6000 -52.8000 90° East 150 278 1,400 -700 Descending Gander Center
Sat 17:40:25 47.6000 -52.7500 90° East 120 222 700 -500 Descending Gander Center
Sat 17:41:25 47.6167 -52.7000 64° Northeast 110 204 400 -150 Descending Gander Center
Sat 17:42:25 47.6167 -52.6667 90° East 70 130 400  Level Gander Center

Login

Don't have an account? Register now (free) for customized features, flight alerts, and more!